createdAt,value
2023-01-12T00:14:00.028Z,7.60
2023-01-12T00:29:02.455Z,7.57
2023-01-12T00:44:24.206Z,6.63
2023-01-12T00:59:26.654Z,10.33
2023-01-12T01:14:29.100Z,7.23
2023-01-12T01:29:31.455Z,7.03
2023-01-12T01:44:33.725Z,7.57
2023-01-12T01:59:39.275Z,7.03
2023-01-12T02:15:02.191Z,10.20
2023-01-12T02:30:19.571Z,6.83
2023-01-12T02:45:42.711Z,10.83
2023-01-12T03:00:46.721Z,7.10
2023-01-12T03:15:54.142Z,8.43
2023-01-12T03:31:02.159Z,9.23
2023-01-12T03:46:16.112Z,5.13
2023-01-12T04:01:18.684Z,5.40
2023-01-12T04:16:21.145Z,6.00
2023-01-12T04:31:23.515Z,4.40
2023-01-12T04:46:26.077Z,6.47
2023-01-12T05:01:29.873Z,4.83
2023-01-12T05:16:32.549Z,7.00
2023-01-12T05:31:35.345Z,7.13
2023-01-12T05:46:40.138Z,5.67
2023-01-12T06:01:42.498Z,5.27
2023-01-12T06:16:44.902Z,4.57
2023-01-12T06:31:47.277Z,5.03
2023-01-12T06:46:49.609Z,5.40
2023-01-12T07:01:52.045Z,5.40
2023-01-12T07:16:54.498Z,3.70
2023-01-12T07:31:56.998Z,2.87
2023-01-12T07:47:02.015Z,3.93
2023-01-12T08:02:05.587Z,3.13
2023-01-12T08:17:12.838Z,3.47
2023-01-12T08:32:18.308Z,4.30
2023-01-12T08:47:27.054Z,1.87
2023-01-12T09:02:29.620Z,2.53
2023-01-12T09:17:32.040Z,1.63
2023-01-12T09:32:37.433Z,2.97
2023-01-12T09:47:55.209Z,4.90
2023-01-12T10:03:11.948Z,2.17
2023-01-12T10:18:19.306Z,2.60
2023-01-12T10:33:25.088Z,1.77
2023-01-12T10:48:27.801Z,2.77
2023-01-12T11:03:42.631Z,2.97
2023-01-12T11:35:29.816Z,2.00
2023-01-12T11:50:39.361Z,1.63
2023-01-12T12:05:47.799Z,1.50
2023-01-12T12:21:14.796Z,2.23
2023-01-12T12:36:47.161Z,1.70
2023-01-12T12:51:50.908Z,1.13
2023-01-12T13:06:53.888Z,2.23
2023-01-12T13:21:58.967Z,0.50
2023-01-12T13:37:16.099Z,1.27
2023-01-12T13:52:38.774Z,1.60
2023-01-12T14:07:47.481Z,1.23
2023-01-12T14:23:05.673Z,0.80
2023-01-12T14:38:13.357Z,1.03
2023-01-12T14:53:35.464Z,1.47
2023-01-12T15:08:51.617Z,0.60
2023-01-12T15:24:13.214Z,0.77
2023-01-12T15:39:15.972Z,1.17
2023-01-12T15:54:19.911Z,1.47
2023-01-12T16:09:22.571Z,1.10
2023-01-12T16:24:26.548Z,1.97
2023-01-12T16:39:29.987Z,1.57
2023-01-12T16:54:33.410Z,1.63
2023-01-12T17:09:38.071Z,1.03
2023-01-12T17:24:41.048Z,2.30
2023-01-12T17:39:43.668Z,2.00
2023-01-12T17:54:46.205Z,1.63
2023-01-12T18:09:48.870Z,1.57
2023-01-12T18:24:51.337Z,2.03
2023-01-12T18:39:53.809Z,1.90
2023-01-12T18:54:56.851Z,1.20
2023-01-12T19:10:01.157Z,3.17
2023-01-12T19:25:23.141Z,1.53
2023-01-12T19:40:33.381Z,1.37
2023-01-12T19:55:36.371Z,1.17
2023-01-12T20:10:39.100Z,1.27
2023-01-12T20:25:43.198Z,1.70
2023-01-12T20:40:46.017Z,2.03
2023-01-12T20:55:50.556Z,2.10
2023-01-12T21:10:54.003Z,2.13
2023-01-12T21:25:56.484Z,1.67
2023-01-12T21:41:03.672Z,0.93
2023-01-12T21:56:06.349Z,0.80
2023-01-12T22:11:14.692Z,1.10
2023-01-12T22:26:18.060Z,0.63
2023-01-12T22:41:22.222Z,0.60
2023-01-12T22:56:25.250Z,0.50
2023-01-12T23:11:27.587Z,0.57
2023-01-12T23:26:32.565Z,0.80
2023-01-12T23:41:36.806Z,0.40
2023-01-12T23:56:39.073Z,0.80
